sensor_id;sensor_type;location;lat;lon;timestamp;temperature;humidity
24226;DHT22;51462;51.422;5.514;2022-12-28T00:03:39;6.80;99.90
24226;DHT22;51462;51.422;5.514;2022-12-28T00:06:06;6.80;99.90
24226;DHT22;51462;51.422;5.514;2022-12-28T00:08:32;6.70;99.90
24226;DHT22;51462;51.422;5.514;2022-12-28T00:11:02;6.70;99.90
24226;DHT22;51462;51.422;5.514;2022-12-28T00:13:31;6.90;99.90
24226;DHT22;51462;51.422;5.514;2022-12-28T00:15:58;6.80;99.90
24226;DHT22;51462;51.422;5.514;2022-12-28T00:18:23;6.70;99.90
24226;DHT22;51462;51.422;5.514;2022-12-28T00:20:59;6.80;99.90
24226;DHT22;51462;51.422;5.514;2022-12-28T00:23:25;6.90;99.90
24226;DHT22;51462;51.422;5.514;2022-12-28T00:25:51;7.00;99.90
24226;DHT22;51462;51.422;5.514;2022-12-28T00:28:17;6.90;99.90
24226;DHT22;51462;51.422;5.514;2022-12-28T00:30:43;7.00;99.90
24226;DHT22;51462;51.422;5.514;2022-12-28T00:33:09;6.90;99.90
24226;DHT22;51462;51.422;5.514;2022-12-28T00:35:34;7.00;99.90
24226;DHT22;51462;51.422;5.514;2022-12-28T00:38:00;6.80;99.90
24226;DHT22;51462;51.422;5.514;2022-12-28T00:40:25;6.90;99.90
24226;DHT22;51462;51.422;5.514;2022-12-28T00:42:51;6.90;99.90
24226;DHT22;51462;51.422;5.514;2022-12-28T00:45:16;7.00;99.90
24226;DHT22;51462;51.422;5.514;2022-12-28T00:47:42;6.90;99.90
24226;DHT22;51462;51.422;5.514;2022-12-28T00:50:08;7.00;99.90
24226;DHT22;51462;51.422;5.514;2022-12-28T00:52:34;6.90;99.90
24226;DHT22;51462;51.422;5.514;2022-12-28T00:54:59;6.90;99.90
24226;DHT22;51462;51.422;5.514;2022-12-28T00:57:25;7.00;99.90
24226;DHT22;51462;51.422;5.514;2022-12-28T00:59:51;7.00;99.90
24226;DHT22;51462;51.422;5.514;2022-12-28T01:02:17;6.90;99.90
24226;DHT22;51462;51.422;5.514;2022-12-28T01:04:42;6.90;99.90
24226;DHT22;51462;51.422;5.514;2022-12-28T01:07:08;6.90;99.90
24226;DHT22;51462;51.422;5.514;2022-12-28T01:09:33;6.90;99.90
24226;DHT22;51462;51.422;5.514;2022-12-28T01:11:59;6.90;99.90
24226;DHT22;51462;51.422;5.514;2022-12-28T01:14:24;7.00;99.90
24226;DHT22;51462;51.422;5.514;2022-12-28T01:16:50;7.00;99.90
24226;DHT22;51462;51.422;5.514;2022-12-28T01:19:20;7.00;99.90
24226;DHT22;51462;51.422;5.514;2022-12-28T01:21:49;7.00;99.90
24226;DHT22;51462;51.422;5.514;2022-12-28T01:24:16;7.00;99.90
24226;DHT22;51462;51.422;5.514;2022-12-28T01:26:42;7.10;99.90
24226;DHT22;51462;51.422;5.514;2022-12-28T01:29:07;7.10;99.90
24226;DHT22;51462;51.422;5.514;2022-12-28T01:31:33;7.10;99.90
24226;DHT22;51462;51.422;5.514;2022-12-28T01:33:59;7.20;99.90
24226;DHT22;51462;51.422;5.514;2022-12-28T01:36:27;7.20;99.90
24226;DHT22;51462;51.422;5.514;2022-12-28T01:38:56;7.20;99.90
24226;DHT22;51462;51.422;5.514;2022-12-28T01:41:22;7.10;99.90
24226;DHT22;51462;51.422;5.514;2022-12-28T01:46:19;7.20;99.90
24226;DHT22;51462;51.422;5.514;2022-12-28T01:49:12;7.20;99.90
24226;DHT22;51462;51.422;5.514;2022-12-28T01:51:51;7.20;99.90
24226;DHT22;51462;51.422;5.514;2022-12-28T01:54:19;7.20;99.90
24226;DHT22;51462;51.422;5.514;2022-12-28T01:56:46;7.20;99.90
24226;DHT22;51462;51.422;5.514;2022-12-28T01:59:13;7.20;99.90
24226;DHT22;51462;51.422;5.514;2022-12-28T02:01:40;7.30;99.90
24226;DHT22;51462;51.422;5.514;2022-12-28T02:04:05;7.30;99.90
24226;DHT22;51462;51.422;5.514;2022-12-28T02:06:31;7.30;99.90
24226;DHT22;51462;51.422;5.514;2022-12-28T02:09:39;7.40;99.90
24226;DHT22;51462;51.422;5.514;2022-12-28T02:12:12;7.30;99.90
24226;DHT22;51462;51.422;5.514;2022-12-28T02:14:40;7.40;99.90
24226;DHT22;51462;51.422;5.514;2022-12-28T02:17:08;7.40;99.90
24226;DHT22;51462;51.422;5.514;2022-12-28T02:19:44;7.40;99.90
24226;DHT22;51462;51.422;5.514;2022-12-28T02:22:31;7.40;99.90
24226;DHT22;51462;51.422;5.514;2022-12-28T02:30:12;7.50;99.90
24226;DHT22;51462;51.422;5.514;2022-12-28T02:38:15;7.50;99.90
24226;DHT22;51462;51.422;5.514;2022-12-28T02:40:57;7.50;99.90
24226;DHT22;51462;51.422;5.514;2022-12-28T02:43:23;7.60;99.90
24226;DHT22;51462;51.422;5.514;2022-12-28T02:45:49;7.60;99.90
24226;DHT22;51462;51.422;5.514;2022-12-28T02:48:45;7.60;99.90
24226;DHT22;51462;51.422;5.514;2022-12-28T02:54:46;7.60;99.90
24226;DHT22;51462;51.422;5.514;2022-12-28T02:57:58;7.60;99.90
24226;DHT22;51462;51.422;5.514;2022-12-28T03:00:36;7.60;99.90
24226;DHT22;51462;51.422;5.514;2022-12-28T03:06:22;7.60;99.90
24226;DHT22;51462;51.422;5.514;2022-12-28T03:09:18;7.60;99.90
24226;DHT22;51462;51.422;5.514;2022-12-28T03:12:03;7.60;99.90
24226;DHT22;51462;51.422;5.514;2022-12-28T03:14:47;7.50;99.90
24226;DHT22;51462;51.422;5.514;2022-12-28T03:17:13;7.60;99.90
24226;DHT22;51462;51.422;5.514;2022-12-28T03:20:05;7.60;99.90
24226;DHT22;51462;51.422;5.514;2022-12-28T03:22:52;7.50;99.90
24226;DHT22;51462;51.422;5.514;2022-12-28T03:25:41;7.50;99.90
24226;DHT22;51462;51.422;5.514;2022-12-28T03:28:29;7.50;99.90
24226;DHT22;51462;51.422;5.514;2022-12-28T03:31:17;7.60;99.90
24226;DHT22;51462;51.422;5.514;2022-12-28T03:33:48;7.50;99.90
24226;DHT22;51462;51.422;5.514;2022-12-28T03:41:39;7.50;99.90
24226;DHT22;51462;51.422;5.514;2022-12-28T03:44:12;7.50;99.90
24226;DHT22;51462;51.422;5.514;2022-12-28T03:46:55;7.50;99.90
24226;DHT22;51462;51.422;5.514;2022-12-28T03:49:23;7.50;99.90
24226;DHT22;51462;51.422;5.514;2022-12-28T03:51:49;7.50;99.90
24226;DHT22;51462;51.422;5.514;2022-12-28T03:54:16;7.50;99.90
24226;DHT22;51462;51.422;5.514;2022-12-28T03:56:47;7.50;99.90
24226;DHT22;51462;51.422;5.514;2022-12-28T03:59:14;7.50;99.90
24226;DHT22;51462;51.422;5.514;2022-12-28T04:01:40;7.50;99.90
24226;DHT22;51462;51.422;5.514;2022-12-28T04:04:05;7.50;99.90
24226;DHT22;51462;51.422;5.514;2022-12-28T04:06:31;7.50;99.90
24226;DHT22;51462;51.422;5.514;2022-12-28T04:08:56;7.50;99.90
24226;DHT22;51462;51.422;5.514;2022-12-28T04:11:22;7.60;99.90
24226;DHT22;51462;51.422;5.514;2022-12-28T04:13:47;7.60;99.90
24226;DHT22;51462;51.422;5.514;2022-12-28T04:16:13;7.60;99.90
24226;DHT22;51462;51.422;5.514;2022-12-28T04:18:40;7.60;99.90
24226;DHT22;51462;51.422;5.514;2022-12-28T04:21:07;7.60;99.90
24226;DHT22;51462;51.422;5.514;2022-12-28T04:23:33;7.60;99.90
24226;DHT22;51462;51.422;5.514;2022-12-28T04:26:04;7.70;99.90
24226;DHT22;51462;51.422;5.514;2022-12-28T04:28:31;7.70;99.90
24226;DHT22;51462;51.422;5.514;2022-12-28T04:30:58;7.70;99.90
24226;DHT22;51462;51.422;5.514;2022-12-28T04:33:25;7.70;99.90
24226;DHT22;51462;51.422;5.514;2022-12-28T04:35:51;7.80;99.90
24226;DHT22;51462;51.422;5.514;2022-12-28T04:38:17;7.80;99.90
24226;DHT22;51462;51.422;5.514;2022-12-28T04:40:42;7.80;99.90
24226;DHT22;51462;51.422;5.514;2022-12-28T04:43:08;7.80;99.90
24226;DHT22;51462;51.422;5.514;2022-12-28T04:45:34;7.80;99.90
24226;DHT22;51462;51.422;5.514;2022-12-28T04:48:00;7.80;99.90
24226;DHT22;51462;51.422;5.514;2022-12-28T04:50:26;7.80;99.90
24226;DHT22;51462;51.422;5.514;2022-12-28T04:52:52;7.80;99.90
24226;DHT22;51462;51.422;5.514;2022-12-28T04:55:18;7.90;99.90
24226;DHT22;51462;51.422;5.514;2022-12-28T04:57:44;7.90;99.90
24226;DHT22;51462;51.422;5.514;2022-12-28T05:00:11;7.90;99.90
24226;DHT22;51462;51.422;5.514;2022-12-28T05:02:37;7.90;99.90
24226;DHT22;51462;51.422;5.514;2022-12-28T05:05:02;7.90;99.90
24226;DHT22;51462;51.422;5.514;2022-12-28T05:07:28;7.90;99.90
24226;DHT22;51462;51.422;5.514;2022-12-28T05:09:54;7.90;99.90
24226;DHT22;51462;51.422;5.514;2022-12-28T05:12:20;7.90;99.90
24226;DHT22;51462;51.422;5.514;2022-12-28T05:14:46;7.90;99.90
24226;DHT22;51462;51.422;5.514;2022-12-28T05:17:12;7.90;99.90
24226;DHT22;51462;51.422;5.514;2022-12-28T05:19:37;7.90;99.90
24226;DHT22;51462;51.422;5.514;2022-12-28T05:22:03;7.90;99.90
24226;DHT22;51462;51.422;5.514;2022-12-28T05:24:29;7.90;99.90
24226;DHT22;51462;51.422;5.514;2022-12-28T05:26:54;7.90;99.90
24226;DHT22;51462;51.422;5.514;2022-12-28T05:29:20;7.90;99.90
24226;DHT22;51462;51.422;5.514;2022-12-28T05:31:45;8.00;99.90
24226;DHT22;51462;51.422;5.514;2022-12-28T05:34:11;8.00;99.90
24226;DHT22;51462;51.422;5.514;2022-12-28T05:36:37;8.00;99.90
24226;DHT22;51462;51.422;5.514;2022-12-28T05:39:04;8.00;99.90
24226;DHT22;51462;51.422;5.514;2022-12-28T05:41:30;8.00;99.90
24226;DHT22;51462;51.422;5.514;2022-12-28T05:43:57;8.00;99.90
24226;DHT22;51462;51.422;5.514;2022-12-28T05:46:27;8.00;99.90
24226;DHT22;51462;51.422;5.514;2022-12-28T05:48:53;8.00;99.90
24226;DHT22;51462;51.422;5.514;2022-12-28T05:51:24;8.00;99.90
24226;DHT22;51462;51.422;5.514;2022-12-28T05:53:50;8.10;99.90
24226;DHT22;51462;51.422;5.514;2022-12-28T05:56:19;8.10;99.90
24226;DHT22;51462;51.422;5.514;2022-12-28T05:58:46;8.00;99.90
24226;DHT22;51462;51.422;5.514;2022-12-28T06:01:18;8.10;99.90
24226;DHT22;51462;51.422;5.514;2022-12-28T06:03:45;8.10;99.90
24226;DHT22;51462;51.422;5.514;2022-12-28T06:06:16;8.10;99.90
24226;DHT22;51462;51.422;5.514;2022-12-28T06:08:43;8.20;99.90
24226;DHT22;51462;51.422;5.514;2022-12-28T06:11:12;8.10;99.90
24226;DHT22;51462;51.422;5.514;2022-12-28T06:13:38;8.20;99.90
24226;DHT22;51462;51.422;5.514;2022-12-28T06:16:05;8.10;99.90
24226;DHT22;51462;51.422;5.514;2022-12-28T06:18:31;8.10;99.90
24226;DHT22;51462;51.422;5.514;2022-12-28T06:21:01;8.10;99.90
24226;DHT22;51462;51.422;5.514;2022-12-28T06:23:27;8.10;99.90
24226;DHT22;51462;51.422;5.514;2022-12-28T06:25:53;8.20;99.90
24226;DHT22;51462;51.422;5.514;2022-12-28T06:28:18;8.20;99.90
24226;DHT22;51462;51.422;5.514;2022-12-28T06:30:44;8.20;99.90
24226;DHT22;51462;51.422;5.514;2022-12-28T06:33:09;8.10;99.90
24226;DHT22;51462;51.422;5.514;2022-12-28T06:35:39;8.20;99.90
24226;DHT22;51462;51.422;5.514;2022-12-28T06:38:05;8.10;99.90
24226;DHT22;51462;51.422;5.514;2022-12-28T06:40:30;8.20;99.90
24226;DHT22;51462;51.422;5.514;2022-12-28T06:42:56;8.20;99.90
24226;DHT22;51462;51.422;5.514;2022-12-28T06:45:22;8.10;99.90
24226;DHT22;51462;51.422;5.514;2022-12-28T06:47:47;8.20;99.90
24226;DHT22;51462;51.422;5.514;2022-12-28T06:50:13;8.20;99.90
24226;DHT22;51462;51.422;5.514;2022-12-28T06:52:38;8.20;99.90
24226;DHT22;51462;51.422;5.514;2022-12-28T06:55:04;8.20;99.90
24226;DHT22;51462;51.422;5.514;2022-12-28T06:57:30;8.20;99.90
24226;DHT22;51462;51.422;5.514;2022-12-28T06:59:55;8.20;99.90
24226;DHT22;51462;51.422;5.514;2022-12-28T07:02:21;8.30;99.90
24226;DHT22;51462;51.422;5.514;2022-12-28T07:04:46;8.20;99.90
24226;DHT22;51462;51.422;5.514;2022-12-28T07:07:12;8.20;99.90
24226;DHT22;51462;51.422;5.514;2022-12-28T07:09:37;8.30;99.90
24226;DHT22;51462;51.422;5.514;2022-12-28T07:12:03;8.30;99.90
24226;DHT22;51462;51.422;5.514;2022-12-28T07:14:29;8.20;99.90
24226;DHT22;51462;51.422;5.514;2022-12-28T07:16:56;8.20;99.90
24226;DHT22;51462;51.422;5.514;2022-12-28T07:19:22;8.20;99.90
24226;DHT22;51462;51.422;5.514;2022-12-28T07:21:48;8.30;99.90
24226;DHT22;51462;51.422;5.514;2022-12-28T07:24:14;8.30;99.90
24226;DHT22;51462;51.422;5.514;2022-12-28T07:26:39;8.30;99.90
24226;DHT22;51462;51.422;5.514;2022-12-28T07:29:06;8.30;99.90
24226;DHT22;51462;51.422;5.514;2022-12-28T07:31:34;8.30;99.90
24226;DHT22;51462;51.422;5.514;2022-12-28T07:34:01;8.30;99.90
24226;DHT22;51462;51.422;5.514;2022-12-28T07:36:29;8.30;99.90
24226;DHT22;51462;51.422;5.514;2022-12-28T07:38:55;8.30;99.90
24226;DHT22;51462;51.422;5.514;2022-12-28T07:41:26;8.40;99.90
24226;DHT22;51462;51.422;5.514;2022-12-28T07:43:52;8.40;99.90
24226;DHT22;51462;51.422;5.514;2022-12-28T07:46:24;8.40;99.90
24226;DHT22;51462;51.422;5.514;2022-12-28T07:48:51;8.40;99.90
24226;DHT22;51462;51.422;5.514;2022-12-28T07:51:28;8.40;99.90
24226;DHT22;51462;51.422;5.514;2022-12-28T07:53:56;8.40;99.90
24226;DHT22;51462;51.422;5.514;2022-12-28T07:56:22;8.50;99.90
24226;DHT22;51462;51.422;5.514;2022-12-28T07:58:56;8.40;99.90
24226;DHT22;51462;51.422;5.514;2022-12-28T08:01:23;8.50;99.90
24226;DHT22;51462;51.422;5.514;2022-12-28T08:03:58;8.50;99.90
24226;DHT22;51462;51.422;5.514;2022-12-28T08:06:25;8.60;99.90
24226;DHT22;51462;51.422;5.514;2022-12-28T08:08:53;8.60;99.90
24226;DHT22;51462;51.422;5.514;2022-12-28T08:11:22;8.60;99.90
24226;DHT22;51462;51.422;5.514;2022-12-28T08:13:50;8.50;99.90
24226;DHT22;51462;51.422;5.514;2022-12-28T08:16:18;8.60;99.90
24226;DHT22;51462;51.422;5.514;2022-12-28T08:18:43;8.60;99.90
24226;DHT22;51462;51.422;5.514;2022-12-28T08:21:21;8.60;99.90
24226;DHT22;51462;51.422;5.514;2022-12-28T08:23:47;8.60;99.90
24226;DHT22;51462;51.422;5.514;2022-12-28T08:26:19;8.60;99.90
24226;DHT22;51462;51.422;5.514;2022-12-28T08:28:47;8.60;99.90
24226;DHT22;51462;51.422;5.514;2022-12-28T08:31:19;8.60;99.90
24226;DHT22;51462;51.422;5.514;2022-12-28T08:33:46;8.60;99.90
24226;DHT22;51462;51.422;5.514;2022-12-28T08:36:12;8.60;99.90
24226;DHT22;51462;51.422;5.514;2022-12-28T08:38:38;8.60;99.90
24226;DHT22;51462;51.422;5.514;2022-12-28T08:41:06;8.70;99.90
24226;DHT22;51462;51.422;5.514;2022-12-28T08:43:32;8.80;99.90
24226;DHT22;51462;51.422;5.514;2022-12-28T08:48:39;8.70;99.90
24226;DHT22;51462;51.422;5.514;2022-12-28T08:51:07;8.70;99.90
24226;DHT22;51462;51.422;5.514;2022-12-28T08:53:33;8.70;99.90
24226;DHT22;51462;51.422;5.514;2022-12-28T08:56:11;8.70;99.90
24226;DHT22;51462;51.422;5.514;2022-12-28T08:58:38;8.70;99.90
24226;DHT22;51462;51.422;5.514;2022-12-28T09:01:12;8.70;99.90
24226;DHT22;51462;51.422;5.514;2022-12-28T09:03:39;8.80;99.90
24226;DHT22;51462;51.422;5.514;2022-12-28T09:06:08;8.80;99.90
24226;DHT22;51462;51.422;5.514;2022-12-28T09:08:34;8.80;99.90
24226;DHT22;51462;51.422;5.514;2022-12-28T09:11:02;8.80;99.90
24226;DHT22;51462;51.422;5.514;2022-12-28T09:13:28;8.80;99.90
24226;DHT22;51462;51.422;5.514;2022-12-28T09:15:59;8.80;99.90
24226;DHT22;51462;51.422;5.514;2022-12-28T09:18:24;8.80;99.90
24226;DHT22;51462;51.422;5.514;2022-12-28T09:20:50;8.80;99.90
24226;DHT22;51462;51.422;5.514;2022-12-28T09:23:16;8.80;99.90
24226;DHT22;51462;51.422;5.514;2022-12-28T09:25:41;8.80;99.90
24226;DHT22;51462;51.422;5.514;2022-12-28T09:28:07;8.80;99.90
24226;DHT22;51462;51.422;5.514;2022-12-28T09:30:32;8.90;99.90
24226;DHT22;51462;51.422;5.514;2022-12-28T09:32:58;8.90;99.90
24226;DHT22;51462;51.422;5.514;2022-12-28T09:35:42;9.00;99.90
24226;DHT22;51462;51.422;5.514;2022-12-28T09:38:08;9.00;99.90
24226;DHT22;51462;51.422;5.514;2022-12-28T09:40:35;9.00;99.90
24226;DHT22;51462;51.422;5.514;2022-12-28T09:43:01;9.00;99.90
24226;DHT22;51462;51.422;5.514;2022-12-28T09:45:27;9.00;99.90
24226;DHT22;51462;51.422;5.514;2022-12-28T09:47:57;9.00;99.90
24226;DHT22;51462;51.422;5.514;2022-12-28T09:50:27;8.90;99.90
24226;DHT22;51462;51.422;5.514;2022-12-28T09:58:40;8.90;99.90
24226;DHT22;51462;51.422;5.514;2022-12-28T10:01:11;9.00;99.90
24226;DHT22;51462;51.422;5.514;2022-12-28T10:03:40;9.00;99.90
24226;DHT22;51462;51.422;5.514;2022-12-28T10:06:20;9.00;99.90
24226;DHT22;51462;51.422;5.514;2022-12-28T10:08:47;9.10;99.90
24226;DHT22;51462;51.422;5.514;2022-12-28T10:11:26;9.20;99.90
24226;DHT22;51462;51.422;5.514;2022-12-28T10:14:00;9.20;99.90
24226;DHT22;51462;51.422;5.514;2022-12-28T10:16:31;9.20;99.90
24226;DHT22;51462;51.422;5.514;2022-12-28T10:18:57;9.10;99.90
24226;DHT22;51462;51.422;5.514;2022-12-28T10:21:26;9.10;99.90
24226;DHT22;51462;51.422;5.514;2022-12-28T10:23:53;9.10;99.90
24226;DHT22;51462;51.422;5.514;2022-12-28T10:26:20;9.10;99.90
24226;DHT22;51462;51.422;5.514;2022-12-28T10:28:52;9.20;99.90
24226;DHT22;51462;51.422;5.514;2022-12-28T10:31:37;9.10;99.90
24226;DHT22;51462;51.422;5.514;2022-12-28T10:34:17;9.10;99.90
24226;DHT22;51462;51.422;5.514;2022-12-28T10:36:46;9.10;99.90
24226;DHT22;51462;51.422;5.514;2022-12-28T10:39:26;9.10;99.90
24226;DHT22;51462;51.422;5.514;2022-12-28T10:41:54;9.10;99.90
24226;DHT22;51462;51.422;5.514;2022-12-28T10:44:32;9.10;99.90
24226;DHT22;51462;51.422;5.514;2022-12-28T10:47:05;9.10;99.90
24226;DHT22;51462;51.422;5.514;2022-12-28T10:49:47;9.10;99.90
24226;DHT22;51462;51.422;5.514;2022-12-28T10:54:38;9.10;99.90
24226;DHT22;51462;51.422;5.514;2022-12-28T10:57:04;9.10;99.90
24226;DHT22;51462;51.422;5.514;2022-12-28T10:59:31;9.10;99.90
24226;DHT22;51462;51.422;5.514;2022-12-28T11:02:26;9.20;99.90
24226;DHT22;51462;51.422;5.514;2022-12-28T11:04:57;9.20;99.90
24226;DHT22;51462;51.422;5.514;2022-12-28T11:10:23;9.20;99.90
24226;DHT22;51462;51.422;5.514;2022-12-28T11:12:51;9.20;99.90
24226;DHT22;51462;51.422;5.514;2022-12-28T11:15:19;9.20;99.90
24226;DHT22;51462;51.422;5.514;2022-12-28T11:17:54;9.20;99.90
24226;DHT22;51462;51.422;5.514;2022-12-28T11:20:24;9.20;99.90
24226;DHT22;51462;51.422;5.514;2022-12-28T11:22:52;9.20;99.90
24226;DHT22;51462;51.422;5.514;2022-12-28T11:25:20;9.20;99.90
24226;DHT22;51462;51.422;5.514;2022-12-28T11:27:48;9.20;99.90
24226;DHT22;51462;51.422;5.514;2022-12-28T11:30:16;9.20;99.90
24226;DHT22;51462;51.422;5.514;2022-12-28T11:32:57;9.20;99.90
24226;DHT22;51462;51.422;5.514;2022-12-28T11:35:28;9.30;99.90
24226;DHT22;51462;51.422;5.514;2022-12-28T11:37:57;9.30;99.90
24226;DHT22;51462;51.422;5.514;2022-12-28T11:45:58;9.30;99.90
24226;DHT22;51462;51.422;5.514;2022-12-28T11:51:04;9.30;99.90
24226;DHT22;51462;51.422;5.514;2022-12-28T11:56:09;9.30;99.90
24226;DHT22;51462;51.422;5.514;2022-12-28T11:58:59;9.30;99.90
24226;DHT22;51462;51.422;5.514;2022-12-28T12:09:42;9.40;99.90
24226;DHT22;51462;51.422;5.514;2022-12-28T12:17:20;9.50;99.90
24226;DHT22;51462;51.422;5.514;2022-12-28T12:19:50;9.50;99.90
24226;DHT22;51462;51.422;5.514;2022-12-28T12:22:27;9.40;99.90
24226;DHT22;51462;51.422;5.514;2022-12-28T12:25:08;9.40;99.90
24226;DHT22;51462;51.422;5.514;2022-12-28T12:27:44;9.40;99.90
24226;DHT22;51462;51.422;5.514;2022-12-28T12:30:14;9.50;99.90
24226;DHT22;51462;51.422;5.514;2022-12-28T12:35:20;9.50;99.90
24226;DHT22;51462;51.422;5.514;2022-12-28T12:43:29;9.50;99.90
24226;DHT22;51462;51.422;5.514;2022-12-28T12:46:16;9.70;99.90
24226;DHT22;51462;51.422;5.514;2022-12-28T12:51:24;9.60;99.90
24226;DHT22;51462;51.422;5.514;2022-12-28T13:02:34;9.70;99.90
24226;DHT22;51462;51.422;5.514;2022-12-28T13:05:03;9.60;99.90
24226;DHT22;51462;51.422;5.514;2022-12-28T13:07:29;9.60;99.90
24226;DHT22;51462;51.422;5.514;2022-12-28T13:09:58;9.60;99.90
24226;DHT22;51462;51.422;5.514;2022-12-28T13:12:24;9.60;99.90
24226;DHT22;51462;51.422;5.514;2022-12-28T13:14:58;9.60;99.90
24226;DHT22;51462;51.422;5.514;2022-12-28T13:17:24;9.60;99.90
24226;DHT22;51462;51.422;5.514;2022-12-28T13:19:50;9.50;99.90
24226;DHT22;51462;51.422;5.514;2022-12-28T13:22:30;9.60;99.90
24226;DHT22;51462;51.422;5.514;2022-12-28T13:24:56;9.60;99.90
24226;DHT22;51462;51.422;5.514;2022-12-28T13:27:34;9.60;99.90
24226;DHT22;51462;51.422;5.514;2022-12-28T13:30:00;9.60;99.90
24226;DHT22;51462;51.422;5.514;2022-12-28T13:32:33;9.70;99.90
24226;DHT22;51462;51.422;5.514;2022-12-28T13:34:59;9.60;99.90
24226;DHT22;51462;51.422;5.514;2022-12-28T13:37:25;9.70;99.90
24226;DHT22;51462;51.422;5.514;2022-12-28T13:40:10;9.70;99.90
24226;DHT22;51462;51.422;5.514;2022-12-28T13:42:50;9.70;99.90
24226;DHT22;51462;51.422;5.514;2022-12-28T13:45:18;9.70;99.90
24226;DHT22;51462;51.422;5.514;2022-12-28T13:47:46;9.70;99.90
24226;DHT22;51462;51.422;5.514;2022-12-28T13:50:17;9.80;99.90
24226;DHT22;51462;51.422;5.514;2022-12-28T13:52:49;9.70;99.90
24226;DHT22;51462;51.422;5.514;2022-12-28T13:58:16;9.80;99.90
24226;DHT22;51462;51.422;5.514;2022-12-28T14:00:44;9.90;99.90
24226;DHT22;51462;51.422;5.514;2022-12-28T14:03:11;9.90;99.90
24226;DHT22;51462;51.422;5.514;2022-12-28T14:05:42;9.90;99.90
24226;DHT22;51462;51.422;5.514;2022-12-28T14:08:09;9.90;99.90
24226;DHT22;51462;51.422;5.514;2022-12-28T14:10:35;10.00;99.90
24226;DHT22;51462;51.422;5.514;2022-12-28T14:13:03;10.00;99.90
24226;DHT22;51462;51.422;5.514;2022-12-28T14:15:29;10.00;99.90
24226;DHT22;51462;51.422;5.514;2022-12-28T14:17:55;9.90;99.90
24226;DHT22;51462;51.422;5.514;2022-12-28T14:20:21;9.90;99.90
24226;DHT22;51462;51.422;5.514;2022-12-28T14:22:46;9.90;99.90
24226;DHT22;51462;51.422;5.514;2022-12-28T14:25:14;10.00;99.90
24226;DHT22;51462;51.422;5.514;2022-12-28T14:27:54;10.00;99.90
24226;DHT22;51462;51.422;5.514;2022-12-28T14:30:25;10.00;99.90
24226;DHT22;51462;51.422;5.514;2022-12-28T14:32:53;10.10;99.90
24226;DHT22;51462;51.422;5.514;2022-12-28T14:35:24;10.10;99.90
24226;DHT22;51462;51.422;5.514;2022-12-28T14:37:56;10.10;99.90
24226;DHT22;51462;51.422;5.514;2022-12-28T14:40:31;10.00;99.90
24226;DHT22;51462;51.422;5.514;2022-12-28T14:43:05;10.10;99.90
24226;DHT22;51462;51.422;5.514;2022-12-28T14:48:18;10.10;99.90
24226;DHT22;51462;51.422;5.514;2022-12-28T14:50:58;10.10;99.90
24226;DHT22;51462;51.422;5.514;2022-12-28T14:53:24;10.20;99.90
24226;DHT22;51462;51.422;5.514;2022-12-28T14:58:27;10.20;99.90
24226;DHT22;51462;51.422;5.514;2022-12-28T15:00:56;10.10;99.90
24226;DHT22;51462;51.422;5.514;2022-12-28T15:03:22;10.30;99.90
24226;DHT22;51462;51.422;5.514;2022-12-28T15:05:52;10.20;99.90
24226;DHT22;51462;51.422;5.514;2022-12-28T15:08:18;10.20;99.90
24226;DHT22;51462;51.422;5.514;2022-12-28T15:10:58;10.30;99.90
24226;DHT22;51462;51.422;5.514;2022-12-28T15:13:25;10.20;99.90
24226;DHT22;51462;51.422;5.514;2022-12-28T15:16:01;10.20;99.90
24226;DHT22;51462;51.422;5.514;2022-12-28T15:18:28;10.10;99.90
24226;DHT22;51462;51.422;5.514;2022-12-28T15:20:56;10.10;99.90
24226;DHT22;51462;51.422;5.514;2022-12-28T15:23:22;10.10;99.90
24226;DHT22;51462;51.422;5.514;2022-12-28T15:25:48;10.10;99.90
24226;DHT22;51462;51.422;5.514;2022-12-28T15:28:14;10.20;99.90
24226;DHT22;51462;51.422;5.514;2022-12-28T15:30:42;10.10;99.90
24226;DHT22;51462;51.422;5.514;2022-12-28T15:33:08;10.10;99.90
24226;DHT22;51462;51.422;5.514;2022-12-28T15:35:34;10.10;99.90
24226;DHT22;51462;51.422;5.514;2022-12-28T15:38:00;10.00;99.90
24226;DHT22;51462;51.422;5.514;2022-12-28T15:40:26;10.10;99.90
24226;DHT22;51462;51.422;5.514;2022-12-28T15:42:51;10.00;99.90
24226;DHT22;51462;51.422;5.514;2022-12-28T15:45:17;10.10;99.90
24226;DHT22;51462;51.422;5.514;2022-12-28T15:47:43;10.10;99.90
24226;DHT22;51462;51.422;5.514;2022-12-28T15:50:09;10.10;99.90
24226;DHT22;51462;51.422;5.514;2022-12-28T15:52:35;10.00;99.90
24226;DHT22;51462;51.422;5.514;2022-12-28T15:55:01;10.00;99.90
24226;DHT22;51462;51.422;5.514;2022-12-28T15:57:27;9.90;99.90
24226;DHT22;51462;51.422;5.514;2022-12-28T15:59:53;9.90;99.90
24226;DHT22;51462;51.422;5.514;2022-12-28T16:02:19;9.80;99.90
24226;DHT22;51462;51.422;5.514;2022-12-28T16:04:45;9.80;99.90
24226;DHT22;51462;51.422;5.514;2022-12-28T16:07:10;9.80;99.90
24226;DHT22;51462;51.422;5.514;2022-12-28T16:09:36;9.70;99.90
24226;DHT22;51462;51.422;5.514;2022-12-28T16:12:02;9.70;99.90
24226;DHT22;51462;51.422;5.514;2022-12-28T16:14:28;9.70;99.90
24226;DHT22;51462;51.422;5.514;2022-12-28T16:16:53;9.70;99.90
24226;DHT22;51462;51.422;5.514;2022-12-28T16:19:19;9.70;99.90
24226;DHT22;51462;51.422;5.514;2022-12-28T16:21:47;9.70;99.90
24226;DHT22;51462;51.422;5.514;2022-12-28T16:24:12;9.70;99.90
24226;DHT22;51462;51.422;5.514;2022-12-28T16:26:38;9.70;99.90
24226;DHT22;51462;51.422;5.514;2022-12-28T16:29:04;9.70;99.90
24226;DHT22;51462;51.422;5.514;2022-12-28T16:31:32;9.80;99.90
24226;DHT22;51462;51.422;5.514;2022-12-28T16:34:03;9.70;99.90
24226;DHT22;51462;51.422;5.514;2022-12-28T16:36:29;9.80;99.90
24226;DHT22;51462;51.422;5.514;2022-12-28T16:38:56;9.80;99.90
24226;DHT22;51462;51.422;5.514;2022-12-28T16:41:22;9.70;99.90
24226;DHT22;51462;51.422;5.514;2022-12-28T16:43:48;9.80;99.90
24226;DHT22;51462;51.422;5.514;2022-12-28T16:46:14;9.80;99.90
24226;DHT22;51462;51.422;5.514;2022-12-28T16:48:40;9.90;99.90
24226;DHT22;51462;51.422;5.514;2022-12-28T16:51:06;9.70;99.90
24226;DHT22;51462;51.422;5.514;2022-12-28T16:53:32;9.70;99.90
24226;DHT22;51462;51.422;5.514;2022-12-28T16:55:59;9.70;99.90
24226;DHT22;51462;51.422;5.514;2022-12-28T16:58:26;9.70;99.90
24226;DHT22;51462;51.422;5.514;2022-12-28T17:00:52;9.90;99.90
24226;DHT22;51462;51.422;5.514;2022-12-28T17:03:17;9.80;99.90
24226;DHT22;51462;51.422;5.514;2022-12-28T17:05:43;9.90;99.90
24226;DHT22;51462;51.422;5.514;2022-12-28T17:08:12;9.80;99.90
24226;DHT22;51462;51.422;5.514;2022-12-28T17:10:40;9.90;99.90
24226;DHT22;51462;51.422;5.514;2022-12-28T17:13:06;9.80;99.90
24226;DHT22;51462;51.422;5.514;2022-12-28T17:15:31;9.70;99.90
24226;DHT22;51462;51.422;5.514;2022-12-28T17:17:57;9.60;99.90
24226;DHT22;51462;51.422;5.514;2022-12-28T17:20:23;9.60;99.90
24226;DHT22;51462;51.422;5.514;2022-12-28T17:22:50;9.70;99.90
24226;DHT22;51462;51.422;5.514;2022-12-28T17:25:15;9.70;99.90
24226;DHT22;51462;51.422;5.514;2022-12-28T17:27:41;9.70;99.90
24226;DHT22;51462;51.422;5.514;2022-12-28T17:30:07;9.70;99.90